KMGM/MGM METAR and TAF weather

Enter ICAO airport designator
Station Type Date Time Source
KMGM METAR 2019/04/18 21:53 UTC NOAA

KMGM 182153Z 16012KT 10SM SCT060 27/16 A2975 RMK AO2 SLP072 T02670156


Station Type Date Time Source
KMGM Decoded METAR 2019/04/18 21:53 UTC NOAA

MONTGOMERY DANNELLY FIELD, AL, United States (KMGM) 32-18N 86-24W 63M
Apr 18, 2019 - 05:53 PM EDT / 2019.04.18 2153 UTC
Wind: from the SSE (160 degrees) at 14 MPH (12 KT):0
Visibility: 10 mile(s):0
Sky conditions: partly cloudy
Temperature: 80.1 F (26.7 C)
Dew Point: 60.1 F (15.6 C)
Relative Humidity: 50%
Pressure (altimeter): 29.75 in. Hg (1007 hPa)
ob: KMGM 182153Z 16012KT 10SM SCT060 27/16 A2975 RMK AO2 SLP072 T02670156
cycle: 22

Station Type Date Time Source
KMGM TAF 2019/04/18 20:58 UTC NOAA

TAF
AMD KMGM 181957Z 1820/1918 17012G24KT P6SM SCT040 BKN050
FM190300 16014G25KT P6SM SHRA VCTS BKN030CB BKN150
TEMPO 1906/1909 1SM +TSRA OVC015CB
FM190900 24012G18KT 3SM -SHRA BR OVC015
FM191200 26010KT P6SM VCSH OVC015

Example: see airport list